Championnat Ligue MD Forêt d'Ermenonvielle (60) - B

Date : 30/01/2011

Place Nom Licence Catégorie Club Temps CN à J-60 Points Différence Nouveau CN
1 BECU Cindy 5139 D21 6008PI 0:36:15 0 4886 4143
2 JANSSON Jeanette 9597 D40 7807IF 0:37:06 4745 4774 +29 4806
3 VILLAR Aurélie 18133 D35 6008PI 0:39:22 4854 4499 -355 4854
4 MOULIERE Camille 2892 D35 0207PI 0:40:59 4776 4321 -455 4751
5 ROBYN Laurence 10766 D40 5906NO 0:43:55 4226 4033 -193 4226
6 LERICHE Clotilde 9427 D20 5907NO 0:45:59 3588 3852 +264 3054
7 MOULIERE M-Helene 2893 D35 0207PI 0:49:57 3546 0
8 CRETE Angélique 18827 D40 6008PI 0:50:04 3565 3537 -28 3626
9 CARRIER Valerie 14246 D40 6008PI 0:51:32 3318 3437 +119 3375
10 BOULANGER Isabelle 10639 D50 5907NO 0:53:41 3326 3299 -27 3335
11 ALARZA Luis 2018 H50 7709IF 0:55:25 3299 3196 -103 3341
12 MARTIN Pascale 23568 D50 7512IF 0:56:01 3092 3162 +70 3200
13 LEROY Odile 7216 D50 5907NO 0:57:58 3275 3055 -220 3302
14 GRENOUILLAT Annick 13087 D50 5907NO 1:02:39 2617 2827 +210 2710
15 MEZZAROBBA Myriam 22969 D21 7512IF 1:06:51 2114 2649 +535 2215
16 TESSIER Ariane 2004 D55 7709IF 1:10:52 2590 2499 -91 2605
17 LECOYER Annick 2885 D60 0207PI 1:19:42 2997 2222 -775 2997
18 LECOYER Regis 2884 H60 0207PI 1:20:54 1745 2189 +444 1894
19 LAMINETTE M-Odile 17201 D50 5907NO 1:23:11 2632 2129 -503 2682
20 GOZE Anne 22931 D55 5907NO 1:24:21 2012 2100 +88 2062
21 LUDEWIG-JAMES Carol 15894 D70 5907NO 1:41:53 2160 1738 -422 2160
22 LAZAROWICZ Rose-Marie 3598 D60 7512IF 1:49:04 1746 1624 -122 1793
GALLOIS Marc 21998 H35 6009PI pm 3531 0 3531
VERCAUTEREN M-Claude 16229 D40 6008PI pm 3867 0 3867
CORDEIRO MENDES Myriam 9235 D50 6008PI pm 2992 0 2891
LEBIAN-DEROME Annie 8121 D60 9502IF pm 1984 0 1984